Calico Rock, Arkansas
Current Conditions -  °F | °C
As of 11:53 AM on Friday 24 Oct 2014 (Local Time) from KBPK Reporting Station
Overcast Overcast  
Wind Chill: 64°   Ceiling: 3400
Heat Index: 64°   Visibility: 9mi
Dew Point: 54°   Wind: 0mph
Humidity: 70%   Direction: NA
Pressure: 30.15"   Gusts: NA
Location:  36.12°N, 92.14°W
Report Text: KBPK 241653Z AUTO 00000KT 9SM OVC034 18/12 A3015 RMK AO2 SLP206 T01780122
Loading
Personal Weather Stations






























Interactive Weather Map
Tropical Storm Tracking
New forecast layout! Learn more

10-Day Weather Forecast

Advertisements
Track Severe Weather on mobile